createdAt,value
2023-01-07T00:01:26.641Z,11.45
2023-01-07T00:03:54.100Z,13.32
2023-01-07T00:06:31.284Z,11.93
2023-01-07T00:08:58.530Z,12.73
2023-01-07T00:11:26.850Z,14.45
2023-01-07T00:13:54.391Z,12.75
2023-01-07T00:16:22.302Z,13.70
2023-01-07T00:18:49.459Z,13.82
2023-01-07T00:21:17.504Z,21.55
2023-01-07T00:23:44.917Z,25.15
2023-01-07T00:26:12.817Z,18.58
2023-01-07T00:28:40.532Z,16.83
2023-01-07T00:31:11.580Z,16.20
2023-01-07T00:33:51.742Z,19.15
2023-01-07T00:36:19.724Z,17.20
2023-01-07T00:38:46.824Z,12.98
2023-01-07T00:41:13.967Z,13.23
2023-01-07T00:43:41.059Z,14.40
2023-01-07T00:46:09.295Z,15.95
2023-01-07T00:48:36.460Z,14.77
2023-01-07T00:51:03.605Z,17.10
2023-01-07T00:53:30.703Z,18.50
2023-01-07T00:55:57.908Z,15.05
2023-01-07T00:58:26.040Z,15.23
2023-01-07T01:00:56.515Z,18.13
2023-01-07T01:03:23.940Z,18.73
2023-01-07T01:05:51.612Z,16.25
2023-01-07T01:08:18.884Z,19.35
2023-01-07T01:10:46.223Z,22.27
2023-01-07T01:13:18.392Z,24.45
2023-01-07T01:15:46.087Z,17.05
2023-01-07T01:18:13.249Z,23.38
2023-01-07T01:20:40.386Z,21.88
2023-01-07T01:23:07.528Z,27.10
2023-01-07T01:25:34.716Z,24.48
2023-01-07T01:28:01.795Z,19.52
2023-01-07T01:30:28.910Z,13.60
2023-01-07T01:32:56.050Z,10.32
2023-01-07T01:35:23.188Z,14.57
2023-01-07T01:37:50.323Z,14.93
2023-01-07T01:40:17.515Z,16.15
2023-01-07T01:42:44.661Z,14.75
2023-01-07T01:45:12.046Z,8.50
2023-01-07T01:47:53.004Z,11.43
2023-01-07T01:50:29.186Z,11.68
2023-01-07T01:52:56.319Z,13.40
2023-01-07T01:55:25.100Z,14.90
2023-01-07T01:57:53.486Z,20.65
2023-01-07T02:00:20.706Z,15.88
2023-01-07T02:02:49.128Z,14.13
2023-01-07T02:05:16.367Z,16.15
2023-01-07T02:07:43.506Z,10.48
2023-01-07T02:10:18.168Z,12.63
2023-01-07T02:12:48.175Z,8.52
2023-01-07T02:15:16.487Z,9.77
2023-01-07T02:17:58.579Z,19.35
2023-01-07T02:20:27.221Z,19.98
2023-01-07T02:22:57.363Z,12.05
2023-01-07T02:25:24.515Z,27.67
2023-01-07T02:27:57.790Z,28.65
2023-01-07T02:30:30.251Z,20.10
2023-01-07T02:32:59.128Z,20.38
2023-01-07T02:35:29.283Z,22.55
2023-01-07T02:38:22.606Z,26.00
2023-01-07T02:41:08.144Z,31.50
2023-01-07T02:43:43.591Z,29.63
2023-01-07T02:46:17.613Z,32.45
2023-01-07T02:48:45.176Z,25.98
2023-01-07T02:51:12.370Z,26.27
2023-01-07T02:53:39.964Z,31.38
2023-01-07T02:56:25.871Z,20.90
2023-01-07T02:58:56.888Z,21.80
2023-01-07T03:01:27.279Z,24.73
2023-01-07T03:04:13.270Z,18.95
2023-01-07T03:06:46.618Z,18.48
2023-01-07T03:09:23.433Z,16.33
2023-01-07T03:12:10.848Z,16.88
2023-01-07T03:14:42.061Z,21.48
2023-01-07T03:17:09.828Z,23.58
2023-01-07T03:19:37.321Z,19.63
2023-01-07T03:22:05.076Z,19.42
2023-01-07T03:24:32.234Z,18.65
2023-01-07T03:26:59.521Z,18.50
2023-01-07T03:29:26.629Z,17.73
2023-01-07T03:32:01.477Z,14.48
2023-01-07T03:34:28.738Z,15.02
2023-01-07T03:36:57.176Z,17.00
2023-01-07T03:39:25.042Z,15.90
2023-01-07T03:42:10.615Z,17.13
2023-01-07T03:44:37.830Z,19.55
2023-01-07T03:47:04.938Z,20.17
2023-01-07T03:49:32.356Z,15.60
2023-01-07T03:51:59.487Z,22.48
2023-01-07T03:54:26.590Z,17.45
2023-01-07T03:56:53.719Z,15.70
2023-01-07T03:59:20.860Z,20.25
2023-01-07T04:01:48.070Z,18.15
2023-01-07T04:04:15.305Z,14.05
2023-01-07T04:06:42.532Z,13.45
2023-01-07T04:09:09.675Z,11.85
2023-01-07T04:11:36.787Z,14.45
2023-01-07T04:14:03.928Z,12.23
2023-01-07T04:16:31.094Z,13.75
2023-01-07T04:18:58.238Z,15.52
2023-01-07T04:21:25.383Z,9.23
2023-01-07T04:23:52.487Z,10.32
2023-01-07T04:26:19.656Z,6.57
2023-01-07T04:28:46.781Z,8.20
2023-01-07T04:31:13.979Z,7.75
2023-01-07T04:33:41.143Z,6.90
2023-01-07T04:36:09.027Z,11.05
2023-01-07T04:38:36.145Z,66.53
2023-01-07T04:41:03.268Z,15.93
2023-01-07T04:43:30.445Z,13.68
2023-01-07T04:45:57.557Z,8.98
2023-01-07T04:48:24.688Z,10.70
2023-01-07T04:50:51.835Z,10.87
2023-01-07T04:53:18.926Z,12.20
2023-01-07T04:55:46.542Z,10.65
2023-01-07T04:58:13.765Z,10.90
2023-01-07T05:00:40.858Z,13.07
2023-01-07T05:03:08.016Z,15.80
2023-01-07T05:05:35.171Z,17.05
2023-01-07T05:08:02.292Z,20.42
2023-01-07T05:10:29.409Z,20.23
2023-01-07T05:12:56.548Z,20.02
2023-01-07T05:15:23.678Z,22.33
2023-01-07T05:17:50.778Z,24.13
2023-01-07T05:20:17.962Z,21.80
2023-01-07T05:22:46.369Z,25.13
2023-01-07T05:25:13.535Z,30.13
2023-01-07T05:27:40.685Z,27.70
2023-01-07T05:30:08.063Z,32.55
2023-01-07T05:32:35.207Z,36.25
2023-01-07T05:35:02.346Z,30.98
2023-01-07T05:37:29.470Z,27.77
2023-01-07T05:39:56.565Z,25.55
2023-01-07T05:42:23.707Z,23.27
2023-01-07T05:44:50.842Z,25.48
2023-01-07T05:47:18.260Z,25.77
2023-01-07T05:49:45.431Z,29.20
2023-01-07T05:52:12.611Z,26.52
2023-01-07T05:54:39.752Z,28.52
2023-01-07T05:57:06.884Z,28.33
2023-01-07T05:59:34.762Z,30.75
2023-01-07T06:02:02.214Z,28.50
2023-01-07T06:04:29.389Z,29.02
2023-01-07T06:06:56.484Z,22.30
2023-01-07T06:09:23.656Z,25.67
2023-01-07T06:11:50.765Z,21.23
2023-01-07T06:14:17.859Z,18.67
2023-01-07T06:16:44.959Z,21.08
2023-01-07T06:19:12.194Z,19.27
2023-01-07T06:21:39.312Z,17.92
2023-01-07T06:24:06.734Z,25.67
2023-01-07T06:26:33.889Z,21.00
2023-01-07T06:29:01.086Z,18.52
2023-01-07T06:31:28.258Z,16.30
2023-01-07T06:33:55.416Z,21.73
2023-01-07T06:36:22.545Z,13.18
2023-01-07T06:38:49.795Z,13.05
2023-01-07T06:41:16.931Z,23.27
2023-01-07T06:43:44.009Z,11.38
2023-01-07T06:46:11.369Z,15.05
2023-01-07T06:48:38.566Z,14.50
2023-01-07T06:51:05.740Z,22.30
2023-01-07T06:53:32.936Z,25.03
2023-01-07T06:56:00.112Z,24.03
2023-01-07T06:58:27.299Z,22.02
2023-01-07T07:00:54.494Z,24.57
2023-01-07T07:03:21.666Z,22.00
2023-01-07T07:05:48.763Z,39.17
2023-01-07T07:08:15.900Z,17.75
2023-01-07T07:10:43.027Z,24.58
2023-01-07T07:13:10.508Z,29.07
2023-01-07T07:15:37.925Z,24.53
2023-01-07T07:18:05.139Z,23.47
2023-01-07T07:20:32.321Z,30.37
2023-01-07T07:22:59.437Z,27.03
2023-01-07T07:25:26.581Z,36.87
2023-01-07T07:27:53.683Z,64.53
2023-01-07T07:30:20.809Z,56.30
2023-01-07T07:32:47.975Z,102.67
2023-01-07T07:35:15.110Z,75.17
2023-01-07T07:37:42.281Z,94.57
2023-01-07T07:40:09.742Z,115.80
2023-01-07T07:43:09.470Z,92.03
2023-01-07T07:45:25.023Z,112.60
2023-01-07T07:47:52.112Z,103.55
2023-01-07T07:50:19.304Z,97.82
2023-01-07T07:52:46.440Z,94.93
2023-01-07T07:55:20.794Z,145.73
2023-01-07T07:57:56.496Z,159.18
2023-01-07T08:00:23.647Z,138.18
2023-01-07T08:02:50.881Z,116.77
2023-01-07T08:05:18.124Z,138.80
2023-01-07T08:07:45.406Z,144.57
2023-01-07T08:10:12.511Z,60.60
2023-01-07T08:12:39.767Z,160.52
2023-01-07T08:15:07.294Z,157.15
2023-01-07T08:17:36.182Z,146.32
2023-01-07T08:20:03.802Z,124.70
2023-01-07T08:22:31.063Z,161.63
2023-01-07T08:24:58.199Z,144.88
2023-01-07T08:27:27.879Z,159.52
2023-01-07T08:29:55.325Z,144.50
2023-01-07T08:32:22.528Z,128.50
2023-01-07T08:34:49.700Z,134.37
2023-01-07T08:37:16.790Z,124.07
2023-01-07T08:39:43.896Z,118.72
2023-01-07T08:42:11.093Z,52.80
2023-01-07T08:44:38.202Z,48.13
2023-01-07T08:47:05.391Z,102.55
2023-01-07T08:49:32.591Z,90.38
2023-01-07T08:51:59.702Z,101.85
2023-01-07T08:54:26.815Z,162.00
2023-01-07T08:56:54.127Z,142.43
2023-01-07T08:59:21.250Z,126.63
2023-01-07T09:01:48.884Z,150.45
2023-01-07T09:04:16.105Z,143.20
2023-01-07T09:06:43.214Z,142.50
2023-01-07T09:09:11.864Z,133.88
2023-01-07T09:11:39.063Z,142.93
2023-01-07T09:14:06.180Z,154.82
2023-01-07T09:16:33.856Z,90.40
2023-01-07T09:19:01.067Z,67.30
2023-01-07T09:21:28.165Z,76.63
2023-01-07T09:23:55.348Z,82.68
2023-01-07T09:26:22.527Z,90.60
2023-01-07T09:28:49.662Z,69.78
2023-01-07T09:31:16.803Z,68.20
2023-01-07T09:33:43.959Z,59.00
2023-01-07T09:36:11.067Z,63.25
2023-01-07T09:38:38.234Z,80.07
2023-01-07T09:41:05.378Z,55.22
2023-01-07T09:44:00.565Z,64.40
2023-01-07T09:46:21.555Z,60.53
2023-01-07T09:48:49.833Z,57.03
2023-01-07T09:51:18.333Z,55.35
2023-01-07T09:53:52.469Z,46.92
2023-01-07T09:56:27.310Z,51.22
2023-01-07T09:58:54.836Z,46.95
2023-01-07T10:01:24.739Z,39.20
2023-01-07T10:04:10.910Z,29.02
2023-01-07T10:06:43.601Z,19.75
2023-01-07T10:09:18.015Z,19.13
2023-01-07T10:11:57.654Z,15.63
2023-01-07T10:14:27.805Z,15.48
2023-01-07T10:16:57.657Z,17.50
2023-01-07T10:19:45.467Z,22.50
2023-01-07T10:22:32.908Z,39.17
2023-01-07T10:25:01.417Z,27.23
2023-01-07T10:27:38.610Z,27.63
2023-01-07T10:30:06.624Z,26.50
2023-01-07T10:32:36.434Z,20.63
2023-01-07T10:35:03.689Z,24.35
2023-01-07T10:37:34.091Z,24.55
2023-01-07T10:40:01.329Z,22.80
2023-01-07T10:42:28.431Z,33.58
2023-01-07T10:45:16.042Z,47.28
2023-01-07T10:47:52.069Z,46.33
2023-01-07T10:50:28.070Z,41.08
2023-01-07T10:53:04.286Z,51.13
2023-01-07T10:55:50.243Z,52.60
2023-01-07T10:58:17.365Z,50.65
2023-01-07T11:00:46.558Z,46.47
2023-01-07T11:03:19.181Z,44.33
2023-01-07T11:05:46.342Z,54.30
2023-01-07T11:08:16.672Z,57.80
2023-01-07T11:10:43.831Z,44.90
2023-01-07T11:13:15.044Z,46.03
2023-01-07T11:15:53.003Z,51.97
2023-01-07T11:18:30.810Z,51.72
2023-01-07T11:20:58.425Z,36.15
2023-01-07T11:23:25.730Z,30.77
2023-01-07T11:25:52.861Z,41.30
2023-01-07T11:28:21.057Z,32.72
2023-01-07T11:30:56.120Z,38.05
2023-01-07T11:34:02.620Z,24.83
2023-01-07T11:36:12.283Z,28.98
2023-01-07T11:38:39.526Z,32.97
2023-01-07T11:41:07.685Z,28.90
2023-01-07T11:43:36.289Z,32.47
2023-01-07T11:46:19.732Z,36.42
2023-01-07T11:48:52.582Z,29.13
2023-01-07T11:51:19.905Z,29.02
2023-01-07T11:53:47.737Z,25.60
2023-01-07T11:56:15.418Z,22.63
2023-01-07T11:58:46.208Z,24.90
2023-01-07T12:01:14.602Z,21.05
2023-01-07T12:04:02.280Z,15.75
2023-01-07T12:06:33.584Z,17.75
2023-01-07T12:09:09.969Z,16.02
2023-01-07T12:11:37.639Z,16.50
2023-01-07T12:14:17.019Z,9.30
2023-01-07T12:16:47.003Z,21.77
2023-01-07T12:19:17.267Z,8.20
2023-01-07T12:21:59.659Z,4.75
2023-01-07T12:24:32.743Z,4.65
2023-01-07T12:27:03.928Z,5.43
2023-01-07T12:29:49.959Z,3.90
2023-01-07T12:32:37.336Z,6.63
2023-01-07T12:35:15.495Z,31.75
2023-01-07T12:37:43.517Z,115.05
2023-01-07T12:40:10.901Z,42.15
2023-01-07T12:42:41.824Z,16.10
2023-01-07T12:45:15.038Z,51.20
2023-01-07T12:47:44.230Z,33.65
2023-01-07T12:50:12.844Z,38.25
2023-01-07T12:52:46.075Z,25.85
2023-01-07T12:55:31.885Z,26.65
2023-01-07T12:58:17.941Z,21.83
2023-01-07T13:00:47.411Z,19.10
2023-01-07T13:03:33.526Z,31.00
2023-01-07T13:06:02.619Z,14.45
2023-01-07T13:08:35.690Z,14.27
2023-01-07T13:11:17.785Z,11.20
2023-01-07T13:13:46.052Z,21.35
2023-01-07T13:16:13.256Z,37.88
2023-01-07T13:18:40.471Z,38.25
2023-01-07T13:21:08.322Z,36.13
2023-01-07T13:23:38.550Z,38.28
2023-01-07T13:26:09.114Z,48.30
2023-01-07T13:28:51.616Z,47.50
2023-01-07T13:31:37.467Z,45.63
2023-01-07T13:34:17.394Z,63.13
2023-01-07T13:36:53.892Z,52.88
2023-01-07T13:39:39.894Z,60.65
2023-01-07T13:42:08.730Z,57.47
2023-01-07T13:44:54.767Z,76.10
2023-01-07T13:47:22.410Z,57.47
2023-01-07T13:49:57.382Z,127.63
2023-01-07T13:52:25.514Z,118.72
2023-01-07T13:54:52.599Z,110.30
2023-01-07T13:57:31.923Z,224.93
2023-01-07T13:59:59.644Z,239.68
2023-01-07T14:02:27.516Z,203.65
2023-01-07T14:05:04.536Z,208.10
2023-01-07T14:07:31.866Z,112.97
2023-01-07T14:09:58.956Z,138.65
2023-01-07T14:12:49.500Z,129.52
2023-01-07T14:15:49.271Z,60.47
2023-01-07T14:18:31.030Z,58.45
2023-01-07T14:21:02.835Z,63.45
2023-01-07T14:23:36.067Z,68.97
2023-01-07T14:26:18.267Z,71.90
2023-01-07T14:28:57.445Z,104.63
2023-01-07T14:31:25.731Z,108.30
2023-01-07T14:33:53.864Z,89.15
2023-01-07T14:36:21.071Z,45.10
2023-01-07T14:38:56.192Z,55.97
2023-01-07T14:41:23.408Z,70.68
2023-01-07T14:44:00.310Z,85.13
2023-01-07T14:46:27.496Z,91.95
2023-01-07T14:49:03.721Z,109.03
2023-01-07T14:51:30.866Z,110.43
2023-01-07T14:53:58.017Z,86.50
2023-01-07T14:56:44.045Z,108.13
2023-01-07T14:59:20.250Z,119.50
2023-01-07T15:01:53.321Z,90.13
2023-01-07T15:04:39.436Z,111.38
2023-01-07T15:07:08.536Z,106.47
2023-01-07T15:10:18.042Z,95.47
2023-01-07T15:13:04.030Z,71.70
2023-01-07T15:15:49.789Z,79.53
2023-01-07T15:18:16.988Z,98.63
2023-01-07T15:20:51.461Z,96.53
2023-01-07T15:23:22.559Z,95.30
2023-01-07T15:25:49.691Z,99.20
2023-01-07T15:28:35.934Z,120.80
2023-01-07T15:31:06.164Z,117.47
2023-01-07T15:33:33.278Z,99.30
2023-01-07T15:36:00.440Z,89.45
2023-01-07T15:38:36.698Z,95.32
2023-01-07T15:41:04.000Z,103.05
2023-01-07T15:43:31.144Z,104.07
2023-01-07T15:46:05.899Z,113.67
2023-01-07T15:48:33.099Z,114.77
2023-01-07T15:51:00.499Z,129.80
2023-01-07T15:53:28.494Z,137.83
2023-01-07T15:56:01.708Z,122.63
2023-01-07T15:58:48.865Z,130.27
2023-01-07T16:01:25.470Z,120.72
2023-01-07T16:03:53.752Z,131.73
2023-01-07T16:06:35.922Z,127.83
2023-01-07T16:09:04.471Z,113.72
2023-01-07T16:11:32.141Z,106.13
2023-01-07T16:14:00.082Z,116.87
2023-01-07T16:16:27.599Z,145.10
2023-01-07T16:18:55.720Z,171.03
2023-01-07T16:21:22.966Z,156.97
2023-01-07T16:23:50.097Z,158.87
2023-01-07T16:26:17.759Z,389.70
2023-01-07T16:28:46.712Z,409.20
2023-01-07T16:31:14.488Z,323.87
2023-01-07T16:33:41.884Z,257.77
2023-01-07T16:36:18.683Z,221.80
2023-01-07T16:38:45.936Z,225.63
2023-01-07T16:41:17.738Z,217.00
2023-01-07T16:43:45.101Z,241.77
2023-01-07T16:46:38.900Z,220.17
2023-01-07T16:49:11.888Z,243.70
2023-01-07T16:51:44.846Z,254.13
2023-01-07T16:54:29.513Z,335.63
2023-01-07T16:56:57.171Z,278.73
2023-01-07T16:59:25.822Z,316.27
2023-01-07T17:01:53.080Z,315.60
2023-01-07T17:04:21.930Z,292.07
2023-01-07T17:06:49.074Z,267.33
2023-01-07T17:09:19.362Z,308.67
2023-01-07T17:11:46.471Z,255.37
2023-01-07T17:14:32.797Z,257.17
2023-01-07T17:17:09.106Z,267.57
2023-01-07T17:19:40.176Z,225.63
2023-01-07T17:22:39.733Z,192.90
2023-01-07T17:25:09.558Z,189.23
2023-01-07T17:27:39.944Z,210.23
2023-01-07T17:30:07.343Z,221.27
2023-01-07T17:32:35.224Z,212.97
2023-01-07T17:35:03.543Z,237.40
2023-01-07T17:37:30.698Z,247.33
2023-01-07T17:39:57.940Z,221.47
2023-01-07T17:42:46.324Z,239.20
2023-01-07T17:45:17.074Z,241.00
2023-01-07T17:47:44.359Z,218.23
2023-01-07T17:50:15.047Z,219.40
2023-01-07T17:52:47.188Z,420.87
2023-01-07T17:55:19.603Z,297.80
2023-01-07T17:57:46.726Z,383.43
2023-01-07T18:00:17.514Z,330.27
2023-01-07T18:02:44.719Z,362.27
2023-01-07T18:05:13.910Z,395.77
2023-01-07T18:07:41.122Z,362.77
2023-01-07T18:10:08.567Z,402.93
2023-01-07T18:12:35.669Z,370.80
2023-01-07T18:15:03.150Z,361.07
2023-01-07T18:17:30.485Z,561.40
2023-01-07T18:19:57.601Z,536.03
2023-01-07T18:22:25.374Z,564.13
2023-01-07T18:24:52.593Z,533.20
2023-01-07T18:27:20.334Z,444.60
2023-01-07T18:29:47.497Z,695.80
2023-01-07T18:32:14.675Z,699.67
2023-01-07T18:34:41.976Z,740.03
2023-01-07T18:37:09.546Z,859.23
2023-01-07T18:39:36.697Z,884.43
2023-01-07T18:42:03.802Z,650.33
2023-01-07T18:44:31.080Z,710.73
2023-01-07T18:46:58.179Z,559.73
2023-01-07T18:49:25.368Z,552.07
2023-01-07T18:51:52.627Z,485.47
2023-01-07T18:54:19.862Z,448.17
2023-01-07T18:56:47.266Z,425.97
2023-01-07T18:59:14.529Z,345.30
2023-01-07T19:01:41.732Z,745.60
2023-01-07T19:04:09.112Z,842.67
2023-01-07T19:06:36.420Z,708.33
2023-01-07T19:09:03.574Z,772.93
2023-01-07T19:11:31.546Z,612.23
2023-01-07T19:13:58.733Z,623.10
2023-01-07T19:16:25.950Z,620.90
2023-01-07T19:18:53.163Z,610.53
2023-01-07T19:21:21.434Z,553.63
2023-01-07T19:23:48.944Z,540.87
2023-01-07T19:26:16.085Z,777.83
2023-01-07T19:28:43.267Z,728.20
2023-01-07T19:31:10.923Z,717.27
2023-01-07T19:33:38.342Z,605.27
2023-01-07T19:36:07.732Z,636.10
2023-01-07T19:38:38.116Z,645.37
2023-01-07T19:41:07.335Z,562.97
2023-01-07T19:43:34.708Z,564.83
2023-01-07T19:46:01.846Z,559.50
2023-01-07T19:48:28.979Z,582.60
2023-01-07T19:50:59.660Z,535.20
2023-01-07T19:53:27.007Z,514.53
2023-01-07T19:55:54.565Z,474.17
2023-01-07T19:58:22.099Z,341.63
2023-01-07T20:00:49.276Z,427.37
2023-01-07T20:03:16.445Z,275.70
2023-01-07T20:05:43.568Z,189.70
2023-01-07T20:08:10.668Z,129.90
2023-01-07T20:10:38.115Z,124.50
2023-01-07T20:13:06.414Z,184.60
2023-01-07T20:15:33.677Z,122.63
2023-01-07T20:18:00.861Z,254.03
2023-01-07T20:20:28.115Z,238.43
2023-01-07T20:22:55.392Z,365.67
2023-01-07T20:25:22.536Z,365.87
2023-01-07T20:27:49.635Z,319.57
2023-01-07T20:30:16.815Z,322.87
2023-01-07T20:32:43.972Z,393.77
2023-01-07T20:35:11.088Z,398.80
2023-01-07T20:37:38.295Z,401.67
2023-01-07T20:40:05.800Z,373.77
2023-01-07T20:42:33.022Z,329.50
2023-01-07T20:45:00.383Z,261.83
2023-01-07T20:47:27.721Z,110.87
2023-01-07T20:49:54.890Z,65.93
2023-01-07T20:52:21.991Z,67.83
2023-01-07T20:54:49.251Z,75.80
2023-01-07T20:57:16.360Z,79.63
2023-01-07T20:59:43.492Z,96.77
2023-01-07T21:02:16.975Z,132.40
2023-01-07T21:04:44.231Z,90.33
2023-01-07T21:07:11.370Z,102.20
2023-01-07T21:09:38.547Z,114.47
2023-01-07T21:12:05.851Z,111.27
2023-01-07T21:14:33.046Z,211.50
2023-01-07T21:17:00.343Z,173.87
2023-01-07T21:19:27.447Z,299.43
2023-01-07T21:21:54.553Z,297.40
2023-01-07T21:24:21.722Z,212.17
2023-01-07T21:26:48.913Z,346.33
2023-01-07T21:29:16.135Z,369.30
2023-01-07T21:31:45.277Z,408.53
2023-01-07T21:34:12.564Z,412.07
2023-01-07T21:36:40.450Z,541.43
2023-01-07T21:39:08.571Z,484.73
2023-01-07T21:41:35.802Z,281.90
2023-01-07T21:44:02.915Z,505.63
2023-01-07T21:46:30.082Z,394.20
2023-01-07T21:48:57.279Z,308.83
2023-01-07T21:51:25.506Z,274.03
2023-01-07T21:53:55.552Z,303.90
2023-01-07T21:56:22.915Z,193.83
2023-01-07T21:58:50.040Z,237.53
2023-01-07T22:01:17.672Z,334.97
2023-01-07T22:03:46.087Z,308.27
2023-01-07T22:06:18.813Z,247.30
2023-01-07T22:08:46.012Z,201.17
2023-01-07T22:11:16.337Z,151.77
2023-01-07T22:13:43.610Z,168.47
2023-01-07T22:16:10.808Z,180.77
2023-01-07T22:18:38.006Z,174.70
2023-01-07T22:21:05.192Z,154.40
2023-01-07T22:23:32.425Z,203.10
2023-01-07T22:26:03.385Z,192.70
2023-01-07T22:28:30.719Z,237.67
2023-01-07T22:30:57.895Z,200.37
2023-01-07T22:33:25.001Z,227.03
2023-01-07T22:35:52.240Z,237.07
2023-01-07T22:38:19.429Z,255.67
2023-01-07T22:40:46.521Z,259.10
2023-01-07T22:43:14.445Z,283.83
2023-01-07T22:45:43.172Z,285.77
2023-01-07T22:48:10.996Z,321.47
2023-01-07T22:50:38.166Z,250.27
2023-01-07T22:53:05.310Z,261.63
2023-01-07T22:55:32.785Z,240.97
2023-01-07T22:58:00.427Z,287.17
2023-01-07T23:00:46.853Z,323.37
2023-01-07T23:03:14.112Z,261.13
2023-01-07T23:05:41.320Z,231.33
2023-01-07T23:08:08.582Z,250.93
2023-01-07T23:10:38.843Z,302.13
2023-01-07T23:13:06.373Z,208.57
2023-01-07T23:15:36.965Z,274.07
2023-01-07T23:18:05.447Z,224.53
2023-01-07T23:20:35.804Z,238.90
2023-01-07T23:23:03.071Z,286.00
2023-01-07T23:25:30.190Z,234.57
2023-01-07T23:27:57.283Z,148.70
2023-01-07T23:30:24.572Z,165.07
2023-01-07T23:32:51.703Z,180.50
2023-01-07T23:35:18.835Z,159.13
2023-01-07T23:37:45.952Z,199.27
2023-01-07T23:40:13.152Z,226.13
2023-01-07T23:42:40.307Z,210.33
2023-01-07T23:45:07.765Z,175.83
2023-01-07T23:47:34.934Z,179.23
2023-01-07T23:50:02.092Z,164.10
2023-01-07T23:52:29.779Z,138.40
2023-01-07T23:54:56.919Z,152.33
2023-01-07T23:57:24.057Z,173.60
2023-01-07T23:59:51.304Z,148.47
